St Solene — FVDG — position and weather

sailwx.info

Track history (hours):
 
Tides and Currents Weather Stations Pressure Air Temp Water Temp Dewpoint Dewpoint Depression Visibility Wind Speed Wind Dir Waves Ship Positions

St Solene

Last reported at 2015-Mar-04 03:32 UTC. Time now 2015-Mar-04 04:28 UTC.
Position N 43°24' E 004°60'.

Length 104 m; draft 6.3 m.

Type: Tanker. MMSI: 226302000.

Date/timePositionNaut miles runAvg speedWind from/ knotsBaromVisibWave heightAir tempDewpointWater temp
2015-Mar-04 03:32N 43°24' E 004°60'0 0.0
2015-Mar-04 02:32N 43°24' E 004°60'0 0.0
2015-Mar-04 01:32N 43°24' E 004°60'0 0.0
2015-Mar-04 00:32N 43°24' E 004°60'0 0.0
2015-Mar-03 23:32N 43°24' E 004°60'0 0.0
2015-Mar-03 22:32N 43°24' E 004°60'0 0.0
2015-Mar-03 21:32N 43°24' E 004°60'0 0.0
2015-Mar-03 20:34N 43°24' E 004°60'1 1.1
2015-Mar-03 19:33N 43°24' E 004°58'0 0.0
2015-Mar-03 18:33N 43°24' E 004°58'0 0.0
2015-Mar-03 17:33N 43°24' E 004°58'0 0.0
2015-Mar-03 16:33N 43°24' E 004°58'0 0.0
2015-Mar-03 15:33N 43°24' E 004°58'0 0.0
2015-Mar-03 14:33N 43°24' E 004°58'0 0.1
2015-Mar-03 13:33N 43°24' E 004°58'0 0.0
2015-Mar-03 12:33N 43°24' E 004°58'0 0.0
2015-Mar-03 11:33N 43°24' E 004°58'0 0.0
2015-Mar-03 10:33N 43°24' E 004°58'0 0.0
2015-Mar-03 09:33N 43°24' E 004°58'0 0.0
2015-Mar-03 08:33N 43°24' E 004°58'0 0.0
2015-Mar-03 07:33N 43°24' E 004°58'0 0.0
2015-Mar-03 06:33N 43°24' E 004°58'0 0.0
2015-Mar-03 05:33N 43°24' E 004°58'0 0.0
2015-Mar-03 04:33N 43°24' E 004°58'0 0.0
2015-Mar-03 03:33N 43°24' E 004°58'0 0.0
2015-Mar-03 02:33N 43°24' E 004°58'0 0.0
2015-Mar-03 01:33N 43°24' E 004°58'1 1.1
2015-Mar-03 00:33N 43°24' E 004°60'0 0.0
2015-Mar-02 23:33N 43°24' E 004°60'0 0.0
2015-Mar-02 22:33N 43°24' E 004°60'0 0.0
2015-Mar-02 21:33N 43°24' E 004°60'0 0.0
2015-Mar-02 20:33N 43°24' E 004°60'0 0.0
2015-Mar-02 19:33N 43°24' E 004°60'0 0.0
2015-Mar-02 18:33N 43°24' E 004°60'0 0.0
2015-Mar-02 17:33N 43°24' E 004°60'0 0.0
2015-Mar-02 16:33N 43°24' E 004°60'0 0.0
2015-Mar-02 15:33N 43°24' E 004°60'0 0.0
2015-Mar-02 14:33N 43°24' E 004°60'0 0.0
2015-Mar-02 13:33N 43°24' E 004°60'0 0.0
2015-Mar-02 12:33N 43°24' E 004°60'0 0.0
2015-Mar-02 11:33N 43°24' E 004°60'0 0.0
2015-Mar-02 10:33N 43°24' E 004°60'0 0.0
2015-Mar-02 09:33N 43°24' E 004°60'0 0.0
2015-Mar-02 08:33N 43°24' E 004°60'0 0.0
2015-Mar-02 07:33N 43°24' E 004°60'0 0.0
2015-Mar-02 06:33N 43°24' E 004°60'0 0.0
2015-Mar-02 05:33N 43°24' E 004°60'2 2.2
2015-Mar-02 04:33N 43°24' E 004°56'0 0.0
2015-Mar-02 03:30N 43°24' E 004°56'0 0.0
2015-Mar-02 02:33N 43°24' E 004°56'0 0.0
2015-Mar-02 01:34N 43°24' E 004°56'0 0.0
2015-Mar-02 00:34N 43°24' E 004°56'0 0.0
2015-Mar-01 23:34N 43°24' E 004°56'0 0.0
2015-Mar-01 22:34N 43°24' E 004°56'0 0.0
2015-Mar-01 21:34N 43°24' E 004°56'0 0.1
2015-Mar-01 20:34N 43°24' E 004°56'0 0.0
2015-Mar-01 19:34N 43°24' E 004°56'0 0.0
2015-Mar-01 18:34N 43°24' E 004°56'0 0.0
2015-Mar-01 17:34N 43°24' E 004°56'0 0.0
2015-Mar-01 16:34N 43°24' E 004°56'0 0.0
2015-Mar-01 15:34N 43°24' E 004°56'7 6.9
2015-Mar-01 14:34N 43°18' E 005°00'4212.0
2015-Mar-01 11:04N 43°00' E 005°52'3312.3
2015-Mar-01 08:23N 42°57' E 006°37'1012.4
2015-Mar-01 07:34N 42°58' E 006°51'1212.2
2015-Mar-01 06:33N 42°59' E 007°08'1312.2
2015-Mar-01 05:27N 43°00' E 007°26'8712.5
2015-Feb-28 22:30N 43°07' E 009°24'  
2015-Feb-26 16:18N 37°58' E 011°50'11 9.9
2015-Feb-26 15:09N 37°48' E 011°55'  
2015-Feb-23 18:28N 38°28' E 008°37'26712.7
2015-Feb-22 21:28N 41°43' E 004°40'1612.7
2015-Feb-22 20:13N 41°55' E 004°26'1012.9
2015-Feb-22 19:28N 42°03' E 004°17'1312.9
2015-Feb-22 18:28N 42°12' E 004°06'1313.3
2015-Feb-22 17:28N 42°22' E 003°54'1313.4
2015-Feb-22 16:31N 42°32' E 003°43'1313.3
2015-Feb-22 15:31N 42°42' E 003°31'1413.8
2015-Feb-22 14:29N 42°53' E 003°19'1412.3
2015-Feb-22 13:23N 43°01' E 003°04'0 0.3
2015-Feb-22 12:27N 43°01' E 003°04'0 0.0
2015-Feb-22 11:33N 43°01' E 003°04'0 0.0
2015-Feb-22 09:33N 43°01' E 003°04'0 0.0
2015-Feb-22 04:09N 43°01' E 003°04'  
Track history (hours):
 
Tides and Currents Weather Stations Pressure Air Temp Water Temp Dewpoint Dewpoint Depression Visibility Wind Speed Wind Dir Waves Ship Positions

St Solene

Last reported at 2015-Mar-04 03:32 UTC. Time now 2015-Mar-04 04:28 UTC.
Position N 43°24' E 004°60'.

Length 104 m; draft 6.3 m.

Type: Tanker. MMSI: 226302000.

Date/timePositionNaut miles runAvg speedWind from/ knotsBaromVisibWave heightAir tempDewpointWater temp
2015-Mar-04 03:32N 43°24' E 004°60'0 0.0
2015-Mar-04 02:32N 43°24' E 004°60'0 0.0
2015-Mar-04 01:32N 43°24' E 004°60'0 0.0
2015-Mar-04 00:32N 43°24' E 004°60'0 0.0
2015-Mar-03 23:32N 43°24' E 004°60'0 0.0
2015-Mar-03 22:32N 43°24' E 004°60'0 0.0
2015-Mar-03 21:32N 43°24' E 004°60'0 0.0
2015-Mar-03 20:34N 43°24' E 004°60'1 1.1
2015-Mar-03 19:33N 43°24' E 004°58'0 0.0
2015-Mar-03 18:33N 43°24' E 004°58'0 0.0
2015-Mar-03 17:33N 43°24' E 004°58'0 0.0
2015-Mar-03 16:33N 43°24' E 004°58'0 0.0
2015-Mar-03 15:33N 43°24' E 004°58'0 0.0
2015-Mar-03 14:33N 43°24' E 004°58'0 0.1
2015-Mar-03 13:33N 43°24' E 004°58'0 0.0
2015-Mar-03 12:33N 43°24' E 004°58'0 0.0
2015-Mar-03 11:33N 43°24' E 004°58'0 0.0
2015-Mar-03 10:33N 43°24' E 004°58'0 0.0
2015-Mar-03 09:33N 43°24' E 004°58'0 0.0
2015-Mar-03 08:33N 43°24' E 004°58'0 0.0
2015-Mar-03 07:33N 43°24' E 004°58'0 0.0
2015-Mar-03 06:33N 43°24' E 004°58'0 0.0
2015-Mar-03 05:33N 43°24' E 004°58'0 0.0
2015-Mar-03 04:33N 43°24' E 004°58'0 0.0
2015-Mar-03 03:33N 43°24' E 004°58'0 0.0
2015-Mar-03 02:33N 43°24' E 004°58'0 0.0
2015-Mar-03 01:33N 43°24' E 004°58'1 1.1
2015-Mar-03 00:33N 43°24' E 004°60'0 0.0
2015-Mar-02 23:33N 43°24' E 004°60'0 0.0
2015-Mar-02 22:33N 43°24' E 004°60'0 0.0
2015-Mar-02 21:33N 43°24' E 004°60'0 0.0
2015-Mar-02 20:33N 43°24' E 004°60'0 0.0
2015-Mar-02 19:33N 43°24' E 004°60'0 0.0
2015-Mar-02 18:33N 43°24' E 004°60'0 0.0
2015-Mar-02 17:33N 43°24' E 004°60'0 0.0
2015-Mar-02 16:33N 43°24' E 004°60'0 0.0
2015-Mar-02 15:33N 43°24' E 004°60'0 0.0
2015-Mar-02 14:33N 43°24' E 004°60'0 0.0
2015-Mar-02 13:33N 43°24' E 004°60'0 0.0
2015-Mar-02 12:33N 43°24' E 004°60'0 0.0
2015-Mar-02 11:33N 43°24' E 004°60'0 0.0
2015-Mar-02 10:33N 43°24' E 004°60'0 0.0
2015-Mar-02 09:33N 43°24' E 004°60'0 0.0
2015-Mar-02 08:33N 43°24' E 004°60'0 0.0
2015-Mar-02 07:33N 43°24' E 004°60'0 0.0
2015-Mar-02 06:33N 43°24' E 004°60'0 0.0
2015-Mar-02 05:33N 43°24' E 004°60'2 2.2
2015-Mar-02 04:33N 43°24' E 004°56'0 0.0
2015-Mar-02 03:30N 43°24' E 004°56'0 0.0
2015-Mar-02 02:33N 43°24' E 004°56'0 0.0
2015-Mar-02 01:34N 43°24' E 004°56'0 0.0
2015-Mar-02 00:34N 43°24' E 004°56'0 0.0
2015-Mar-01 23:34N 43°24' E 004°56'0 0.0
2015-Mar-01 22:34N 43°24' E 004°56'0 0.0
2015-Mar-01 21:34N 43°24' E 004°56'0 0.1
2015-Mar-01 20:34N 43°24' E 004°56'0 0.0
2015-Mar-01 19:34N 43°24' E 004°56'0 0.0
2015-Mar-01 18:34N 43°24' E 004°56'0 0.0
2015-Mar-01 17:34N 43°24' E 004°56'0 0.0
2015-Mar-01 16:34N 43°24' E 004°56'0 0.0
2015-Mar-01 15:34N 43°24' E 004°56'7 6.9
2015-Mar-01 14:34N 43°18' E 005°00'4212.0
2015-Mar-01 11:04N 43°00' E 005°52'3312.3
2015-Mar-01 08:23N 42°57' E 006°37'1012.4
2015-Mar-01 07:34N 42°58' E 006°51'1212.2
2015-Mar-01 06:33N 42°59' E 007°08'1312.2
2015-Mar-01 05:27N 43°00' E 007°26'8712.5
2015-Feb-28 22:30N 43°07' E 009°24'  
2015-Feb-26 16:18N 37°58' E 011°50'11 9.9
2015-Feb-26 15:09N 37°48' E 011°55'  
2015-Feb-23 18:28N 38°28' E 008°37'26712.7
2015-Feb-22 21:28N 41°43' E 004°40'1612.7
2015-Feb-22 20:13N 41°55' E 004°26'1012.9
2015-Feb-22 19:28N 42°03' E 004°17'1312.9
2015-Feb-22 18:28N 42°12' E 004°06'1313.3
2015-Feb-22 17:28N 42°22' E 003°54'1313.4
2015-Feb-22 16:31N 42°32' E 003°43'1313.3
2015-Feb-22 15:31N 42°42' E 003°31'1413.8
2015-Feb-22 14:29N 42°53' E 003°19'1412.3
2015-Feb-22 13:23N 43°01' E 003°04'0 0.3
2015-Feb-22 12:27N 43°01' E 003°04'0 0.0
2015-Feb-22 11:33N 43°01' E 003°04'0 0.0
2015-Feb-22 09:33N 43°01' E 003°04'0 0.0
2015-Feb-22 04:09N 43°01' E 003°04'  

Dump ship's entire track history